Aviation Digital Data Service (ADDS)

Output produced by METARs form (0325 UTC 18 June 2019)
found at http://www.aviationweather.gov/metar/data/
 
METAR text: UTTT 180300Z 03004KT 350V060 CAVOK 26/08 Q1009 R26R/CLRD70 NOSIG
Conditions at: UTTT (TASKENT/YUZNI , UZ) observed 0300 UTC 18 June 2019
Temperature: 26.0°C (79°F)
Dewpoint: 8.0°C (46°F) [RH = 32%]
Pressure (altimeter): 29.79 inches Hg (1009.0 mb)
Winds: from the NNE (30 degrees) at 5 MPH (4 knots; 2.1 m/s)
Visibility: 6 or more miles (10+ km)
Ceiling: ceiling and visibility are OK
Clouds: unknown
Weather: no significant weather observed at this time

METAR text: UTTT 180230Z 03004KT 320V060 CAVOK 25/08 Q1009 R26R/CLRD70 NOSIG
Conditions at: UTTT (TASKENT/YUZNI , UZ) observed 0230 UTC 18 June 2019
Temperature: 25.0°C (77°F)
Dewpoint: 8.0°C (46°F) [RH = 34%]
Pressure (altimeter): 29.79 inches Hg (1009.0 mb)
Winds: from the NNE (30 degrees) at 5 MPH (4 knots; 2.1 m/s)
Visibility: 6 or more miles (10+ km)
Ceiling: ceiling and visibility are OK
Clouds: unknown
Weather: no significant weather observed at this time

METAR text: UTTT 180200Z 02004KT 340V080 CAVOK 24/08 Q1009 R26R/CLRD70 NOSIG
Conditions at: UTTT (TASKENT/YUZNI , UZ) observed 0200 UTC 18 June 2019
Temperature: 24.0°C (75°F)
Dewpoint: 8.0°C (46°F) [RH = 36%]
Pressure (altimeter): 29.79 inches Hg (1009.0 mb)
Winds: from the NNE (20 degrees) at 5 MPH (4 knots; 2.1 m/s)
Visibility: 6 or more miles (10+ km)
Ceiling: ceiling and visibility are OK
Clouds: unknown
Weather: no significant weather observed at this time

METAR text: UTTT 180130Z 06006KT CAVOK 22/08 Q1008 R08R/CLRD70 NOSIG
Conditions at: UTTT (TASKENT/YUZNI , UZ) observed 0130 UTC 18 June 2019
Temperature: 22.0°C (72°F)
Dewpoint: 8.0°C (46°F) [RH = 41%]
Pressure (altimeter): 29.76 inches Hg (1008.0 mb)
Winds: from the ENE (60 degrees) at 7 MPH (6 knots; 3.1 m/s)
Visibility: 6 or more miles (10+ km)
Ceiling: ceiling and visibility are OK
Clouds: unknown
Weather: no significant weather observed at this time

METAR text: UTTT 180100Z 06010KT CAVOK 21/08 Q1008 R08R/CLRD70 NOSIG
Conditions at: UTTT (TASKENT/YUZNI , UZ) observed 0100 UTC 18 June 2019
Temperature: 21.0°C (70°F)
Dewpoint: 8.0°C (46°F) [RH = 43%]
Pressure (altimeter): 29.76 inches Hg (1008.0 mb)
Winds: from the ENE (60 degrees) at 12 MPH (10 knots; 5.1 m/s)
Visibility: 6 or more miles (10+ km)
Ceiling: ceiling and visibility are OK
Clouds: unknown
Weather: no significant weather observed at this time

METAR text: UTTT 180030Z 06008KT CAVOK 20/08 Q1008 R08R/CLRD70 NOSIG
Conditions at: UTTT (TASKENT/YUZNI , UZ) observed 0030 UTC 18 June 2019
Temperature: 20.0°C (68°F)
Dewpoint: 8.0°C (46°F) [RH = 46%]
Pressure (altimeter): 29.76 inches Hg (1008.0 mb)
Winds: from the ENE (60 degrees) at 9 MPH (8 knots; 4.1 m/s)
Visibility: 6 or more miles (10+ km)
Ceiling: ceiling and visibility are OK
Clouds: unknown
Weather: no significant weather observed at this time

METAR text: UTTT 180000Z 06008KT CAVOK 20/08 Q1008 R08R/CLRD70 NOSIG
Conditions at: UTTT (TASKENT/YUZNI , UZ) observed 0000 UTC 18 June 2019
Temperature: 20.0°C (68°F)
Dewpoint: 8.0°C (46°F) [RH = 46%]
Pressure (altimeter): 29.76 inches Hg (1008.0 mb)
Winds: from the ENE (60 degrees) at 9 MPH (8 knots; 4.1 m/s)
Visibility: 6 or more miles (10+ km)
Ceiling: ceiling and visibility are OK
Clouds: unknown
Weather: no significant weather observed at this time

METAR text: UTTT 172330Z 06008KT CAVOK 19/08 Q1008 R08R/CLRD70 NOSIG
Conditions at: UTTT (TASKENT/YUZNI , UZ) observed 2330 UTC 17 June 2019
Temperature: 19.0°C (66°F)
Dewpoint: 8.0°C (46°F) [RH = 49%]
Pressure (altimeter): 29.76 inches Hg (1008.0 mb)
Winds: from the ENE (60 degrees) at 9 MPH (8 knots; 4.1 m/s)
Visibility: 6 or more miles (10+ km)
Ceiling: ceiling and visibility are OK
Clouds: unknown
Weather: no significant weather observed at this time

METAR text: UTTT 172300Z 07006KT CAVOK 18/08 Q1008 R08R/CLRD70 NOSIG
Conditions at: UTTT (TASKENT/YUZNI , UZ) observed 2300 UTC 17 June 2019
Temperature: 18.0°C (64°F)
Dewpoint: 8.0°C (46°F) [RH = 52%]
Pressure (altimeter): 29.76 inches Hg (1008.0 mb)
Winds: from the ENE (70 degrees) at 7 MPH (6 knots; 3.1 m/s)
Visibility: 6 or more miles (10+ km)
Ceiling: ceiling and visibility are OK
Clouds: unknown
Weather: no significant weather observed at this time

METAR text: UTTT 172230Z 05006KT CAVOK 20/08 Q1008 R08R/CLRD70 NOSIG
Conditions at: UTTT (TASKENT/YUZNI , UZ) observed 2230 UTC 17 June 2019
Temperature: 20.0°C (68°F)
Dewpoint: 8.0°C (46°F) [RH = 46%]
Pressure (altimeter): 29.76 inches Hg (1008.0 mb)
Winds: from the NE (50 degrees) at 7 MPH (6 knots; 3.1 m/s)
Visibility: 6 or more miles (10+ km)
Ceiling: ceiling and visibility are OK
Clouds: unknown
Weather: no significant weather observed at this time

METAR text: UTTT 172200Z 06008KT CAVOK 20/08 Q1007 R08R/CLRD70 NOSIG
Conditions at: UTTT (TASKENT/YUZNI , UZ) observed 2200 UTC 17 June 2019
Temperature: 20.0°C (68°F)
Dewpoint: 8.0°C (46°F) [RH = 46%]
Pressure (altimeter): 29.73 inches Hg (1007.0 mb)
Winds: from the ENE (60 degrees) at 9 MPH (8 knots; 4.1 m/s)
Visibility: 6 or more miles (10+ km)
Ceiling: ceiling and visibility are OK
Clouds: unknown
Weather: no significant weather observed at this time

METAR text: UTTT 172130Z 06008KT CAVOK 21/08 Q1008 R08R/CLRD70 NOSIG
Conditions at: UTTT (TASKENT/YUZNI , UZ) observed 2130 UTC 17 June 2019
Temperature: 21.0°C (70°F)
Dewpoint: 8.0°C (46°F) [RH = 43%]
Pressure (altimeter): 29.76 inches Hg (1008.0 mb)
Winds: from the ENE (60 degrees) at 9 MPH (8 knots; 4.1 m/s)
Visibility: 6 or more miles (10+ km)
Ceiling: ceiling and visibility are OK
Clouds: unknown
Weather: no significant weather observed at this time

METAR text: UTTT 172100Z 07006KT CAVOK 19/09 Q1008 R08R/CLRD70 NOSIG
Conditions at: UTTT (TASKENT/YUZNI , UZ) observed 2100 UTC 17 June 2019
Temperature: 19.0°C (66°F)
Dewpoint: 9.0°C (48°F) [RH = 52%]
Pressure (altimeter): 29.76 inches Hg (1008.0 mb)
Winds: from the ENE (70 degrees) at 7 MPH (6 knots; 3.1 m/s)
Visibility: 6 or more miles (10+ km)
Ceiling: ceiling and visibility are OK
Clouds: unknown
Weather: no significant weather observed at this time

METAR text: UTTT 172030Z 05006KT 350V090 CAVOK 22/07 Q1008 R08R/CLRD70 NOSIG
Conditions at: UTTT (TASKENT/YUZNI , UZ) observed 2030 UTC 17 June 2019
Temperature: 22.0°C (72°F)
Dewpoint: 7.0°C (45°F) [RH = 38%]
Pressure (altimeter): 29.76 inches Hg (1008.0 mb)
Winds: from the NE (50 degrees) at 7 MPH (6 knots; 3.1 m/s)
Visibility: 6 or more miles (10+ km)
Ceiling: ceiling and visibility are OK
Clouds: unknown
Weather: no significant weather observed at this time

METAR text: UTTT 172000Z 05004KT CAVOK 22/07 Q1008 R08R/CLRD70 NOSIG
Conditions at: UTTT (TASKENT/YUZNI , UZ) observed 2000 UTC 17 June 2019
Temperature: 22.0°C (72°F)
Dewpoint: 7.0°C (45°F) [RH = 38%]
Pressure (altimeter): 29.76 inches Hg (1008.0 mb)
Winds: from the NE (50 degrees) at 5 MPH (4 knots; 2.1 m/s)
Visibility: 6 or more miles (10+ km)
Ceiling: ceiling and visibility are OK
Clouds: unknown
Weather: no significant weather observed at this time

METAR text: UTTT 171930Z 04006KT CAVOK 23/07 Q1008 R08R/CLRD70 NOSIG
Conditions at: UTTT (TASKENT/YUZNI , UZ) observed 1930 UTC 17 June 2019
Temperature: 23.0°C (73°F)
Dewpoint: 7.0°C (45°F) [RH = 36%]
Pressure (altimeter): 29.76 inches Hg (1008.0 mb)
Winds: from the NE (40 degrees) at 7 MPH (6 knots; 3.1 m/s)
Visibility: 6 or more miles (10+ km)
Ceiling: ceiling and visibility are OK
Clouds: unknown
Weather: no significant weather observed at this time

METAR text: UTTT 171900Z 02008KT 360V070 CAVOK 24/06 Q1008 R08R/CLRD70 NOSIG
Conditions at: UTTT (TASKENT/YUZNI , UZ) observed 1900 UTC 17 June 2019
Temperature: 24.0°C (75°F)
Dewpoint: 6.0°C (43°F) [RH = 31%]
Pressure (altimeter): 29.76 inches Hg (1008.0 mb)
Winds: from the NNE (20 degrees) at 9 MPH (8 knots; 4.1 m/s)
Visibility: 6 or more miles (10+ km)
Ceiling: ceiling and visibility are OK
Clouds: unknown
Weather: no significant weather observed at this time

METAR text: UTTT 171830Z 36006KT 340V040 CAVOK 25/05 Q1008 R08R/CLRD70 NOSIG
Conditions at: UTTT (TASKENT/YUZNI , UZ) observed 1830 UTC 17 June 2019
Temperature: 25.0°C (77°F)
Dewpoint: 5.0°C (41°F) [RH = 28%]
Pressure (altimeter): 29.76 inches Hg (1008.0 mb)
Winds: from the N (360 degrees) at 7 MPH (6 knots; 3.1 m/s)
Visibility: 6 or more miles (10+ km)
Ceiling: ceiling and visibility are OK
Clouds: unknown
Weather: no significant weather observed at this time

METAR text: UTTT 171800Z 02008KT CAVOK 26/05 Q1008 R08R/CLRD70 NOSIG
Conditions at: UTTT (TASKENT/YUZNI , UZ) observed 1800 UTC 17 June 2019
Temperature: 26.0°C (79°F)
Dewpoint: 5.0°C (41°F) [RH = 26%]
Pressure (altimeter): 29.76 inches Hg (1008.0 mb)
Winds: from the NNE (20 degrees) at 9 MPH (8 knots; 4.1 m/s)
Visibility: 6 or more miles (10+ km)
Ceiling: ceiling and visibility are OK
Clouds: unknown
Weather: no significant weather observed at this time

METAR text: UTTT 171730Z 03004KT 330V100 CAVOK 26/04 Q1008 R08R/CLRD70 NOSIG
Conditions at: UTTT (TASKENT/YUZNI , UZ) observed 1730 UTC 17 June 2019
Temperature: 26.0°C (79°F)
Dewpoint: 4.0°C (39°F) [RH = 24%]
Pressure (altimeter): 29.76 inches Hg (1008.0 mb)
Winds: from the NNE (30 degrees) at 5 MPH (4 knots; 2.1 m/s)
Visibility: 6 or more miles (10+ km)
Ceiling: ceiling and visibility are OK
Clouds: unknown
Weather: no significant weather observed at this time

METAR text: UTTT 171700Z 36006KT CAVOK 27/04 Q1008 R08R/CLRD70 NOSIG
Conditions at: UTTT (TASKENT/YUZNI , UZ) observed 1700 UTC 17 June 2019
Temperature: 27.0°C (81°F)
Dewpoint: 4.0°C (39°F) [RH = 23%]
Pressure (altimeter): 29.76 inches Hg (1008.0 mb)
Winds: from the N (360 degrees) at 7 MPH (6 knots; 3.1 m/s)
Visibility: 6 or more miles (10+ km)
Ceiling: ceiling and visibility are OK
Clouds: unknown
Weather: no significant weather observed at this time

METAR text: UTTT 171630Z 01006KT 340V050 CAVOK 28/04 Q1008 R08R/CLRD70 NOSIG
Conditions at: UTTT (TASKENT/YUZNI , UZ) observed 1630 UTC 17 June 2019
Temperature: 28.0°C (82°F)
Dewpoint: 4.0°C (39°F) [RH = 22%]
Pressure (altimeter): 29.76 inches Hg (1008.0 mb)
Winds: from the N (10 degrees) at 7 MPH (6 knots; 3.1 m/s)
Visibility: 6 or more miles (10+ km)
Ceiling: ceiling and visibility are OK
Clouds: unknown
Weather: no significant weather observed at this time

METAR text: UTTT 171600Z 04006KT 350V060 CAVOK 29/04 Q1008 R08R/CLRD70 NOSIG
Conditions at: UTTT (TASKENT/YUZNI , UZ) observed 1600 UTC 17 June 2019
Temperature: 29.0°C (84°F)
Dewpoint: 4.0°C (39°F) [RH = 20%]
Pressure (altimeter): 29.76 inches Hg (1008.0 mb)
Winds: from the NE (40 degrees) at 7 MPH (6 knots; 3.1 m/s)
Visibility: 6 or more miles (10+ km)
Ceiling: ceiling and visibility are OK
Clouds: unknown
Weather: no significant weather observed at this time

METAR text: UTTT 171530Z 26004KT CAVOK 28/05 Q1008 R08R/CLRD70 NOSIG
Conditions at: UTTT (TASKENT/YUZNI , UZ) observed 1530 UTC 17 June 2019
Temperature: 28.0°C (82°F)
Dewpoint: 5.0°C (41°F) [RH = 23%]
Pressure (altimeter): 29.76 inches Hg (1008.0 mb)
Winds: from the W (260 degrees) at 5 MPH (4 knots; 2.1 m/s)
Visibility: 6 or more miles (10+ km)
Ceiling: ceiling and visibility are OK
Clouds: unknown
Weather: no significant weather observed at this time

METAR text: UTTT 171500Z 26006KT CAVOK 29/03 Q1007 R08R/CLRD70 NOSIG
Conditions at: UTTT (TASKENT/YUZNI , UZ) observed 1500 UTC 17 June 2019
Temperature: 29.0°C (84°F)
Dewpoint: 3.0°C (37°F) [RH = 19%]
Pressure (altimeter): 29.73 inches Hg (1007.0 mb)
Winds: from the W (260 degrees) at 7 MPH (6 knots; 3.1 m/s)
Visibility: 6 or more miles (10+ km)
Ceiling: ceiling and visibility are OK
Clouds: unknown
Weather: no significant weather observed at this time

METAR text: UTTT 171430Z 28006KT 230V350 CAVOK 31/03 Q1007 R08R/CLRD70 NOSIG
Conditions at: UTTT (TASKENT/YUZNI , UZ) observed 1430 UTC 17 June 2019
Temperature: 31.0°C (88°F)
Dewpoint: 3.0°C (37°F) [RH = 17%]
Pressure (altimeter): 29.73 inches Hg (1007.0 mb)
Winds: from the W (280 degrees) at 7 MPH (6 knots; 3.1 m/s)
Visibility: 6 or more miles (10+ km)
Ceiling: ceiling and visibility are OK
Clouds: unknown
Weather: no significant weather observed at this time

METAR text: UTTT 171400Z 27006KT CAVOK 31/03 Q1007 R08R/CLRD70 NOSIG
Conditions at: UTTT (TASKENT/YUZNI , UZ) observed 1400 UTC 17 June 2019
Temperature: 31.0°C (88°F)
Dewpoint: 3.0°C (37°F) [RH = 17%]
Pressure (altimeter): 29.73 inches Hg (1007.0 mb)
Winds: from the W (270 degrees) at 7 MPH (6 knots; 3.1 m/s)
Visibility: 6 or more miles (10+ km)
Ceiling: ceiling and visibility are OK
Clouds: unknown
Weather: no significant weather observed at this time

METAR text: UTTT 171330Z 34006KT 270V030 CAVOK 32/02 Q1007 R08R/CLRD70 NOSIG
Conditions at: UTTT (TASKENT/YUZNI , UZ) observed 1330 UTC 17 June 2019
Temperature: 32.0°C (90°F)
Dewpoint: 2.0°C (36°F) [RH = 15%]
Pressure (altimeter): 29.73 inches Hg (1007.0 mb)
Winds: from the NNW (340 degrees) at 7 MPH (6 knots; 3.1 m/s)
Visibility: 6 or more miles (10+ km)
Ceiling: ceiling and visibility are OK
Clouds: unknown
Weather: no significant weather observed at this time

METAR text: UTTT 171300Z 34006KT 300V020 CAVOK 32/02 Q1007 R08R/CLRD70 NOSIG
Conditions at: UTTT (TASKENT/YUZNI , UZ) observed 1300 UTC 17 June 2019
Temperature: 32.0°C (90°F)
Dewpoint: 2.0°C (36°F) [RH = 15%]
Pressure (altimeter): 29.73 inches Hg (1007.0 mb)
Winds: from the NNW (340 degrees) at 7 MPH (6 knots; 3.1 m/s)
Visibility: 6 or more miles (10+ km)
Ceiling: ceiling and visibility are OK
Clouds: unknown
Weather: no significant weather observed at this time

METAR text: UTTT 171230Z 27006KT 230V310 CAVOK 32/02 Q1008 R08R/CLRD70 NOSIG
Conditions at: UTTT (TASKENT/YUZNI , UZ) observed 1230 UTC 17 June 2019
Temperature: 32.0°C (90°F)
Dewpoint: 2.0°C (36°F) [RH = 15%]
Pressure (altimeter): 29.76 inches Hg (1008.0 mb)
Winds: from the W (270 degrees) at 7 MPH (6 knots; 3.1 m/s)
Visibility: 6 or more miles (10+ km)
Ceiling: ceiling and visibility are OK
Clouds: unknown
Weather: no significant weather observed at this time

METAR text: UTTT 171200Z 29006KT 260V350 CAVOK 32/02 Q1008 R08R/CLRD70 NOSIG
Conditions at: UTTT (TASKENT/YUZNI , UZ) observed 1200 UTC 17 June 2019
Temperature: 32.0°C (90°F)
Dewpoint: 2.0°C (36°F) [RH = 15%]
Pressure (altimeter): 29.76 inches Hg (1008.0 mb)
Winds: from the WNW (290 degrees) at 7 MPH (6 knots; 3.1 m/s)
Visibility: 6 or more miles (10+ km)
Ceiling: ceiling and visibility are OK
Clouds: unknown
Weather: no significant weather observed at this time

METAR text: UTTT 171130Z 29006KT 230V350 CAVOK 32/02 Q1008 R08R/CLRD70 NOSIG
Conditions at: UTTT (TASKENT/YUZNI , UZ) observed 1130 UTC 17 June 2019
Temperature: 32.0°C (90°F)
Dewpoint: 2.0°C (36°F) [RH = 15%]
Pressure (altimeter): 29.76 inches Hg (1008.0 mb)
Winds: from the WNW (290 degrees) at 7 MPH (6 knots; 3.1 m/s)
Visibility: 6 or more miles (10+ km)
Ceiling: ceiling and visibility are OK
Clouds: unknown
Weather: no significant weather observed at this time

METAR text: UTTT 171100Z 26006KT CAVOK 32/02 Q1008 R08R/CLRD70 NOSIG
Conditions at: UTTT (TASKENT/YUZNI , UZ) observed 1100 UTC 17 June 2019
Temperature: 32.0°C (90°F)
Dewpoint: 2.0°C (36°F) [RH = 15%]
Pressure (altimeter): 29.76 inches Hg (1008.0 mb)
Winds: from the W (260 degrees) at 7 MPH (6 knots; 3.1 m/s)
Visibility: 6 or more miles (10+ km)
Ceiling: ceiling and visibility are OK
Clouds: unknown
Weather: no significant weather observed at this time

METAR text: UTTT 171030Z 31006KT 280V020 CAVOK 32/02 Q1009 R08R/CLRD70 NOSIG
Conditions at: UTTT (TASKENT/YUZNI , UZ) observed 1030 UTC 17 June 2019
Temperature: 32.0°C (90°F)
Dewpoint: 2.0°C (36°F) [RH = 15%]
Pressure (altimeter): 29.79 inches Hg (1009.0 mb)
Winds: from the NW (310 degrees) at 7 MPH (6 knots; 3.1 m/s)
Visibility: 6 or more miles (10+ km)
Ceiling: ceiling and visibility are OK
Clouds: unknown
Weather: no significant weather observed at this time

METAR text: UTTT 171000Z 30006KT 240V010 CAVOK 32/01 Q1009 R08R/CLRD70 NOSIG
Conditions at: UTTT (TASKENT/YUZNI , UZ) observed 1000 UTC 17 June 2019
Temperature: 32.0°C (90°F)
Dewpoint: 1.0°C (34°F) [RH = 14%]
Pressure (altimeter): 29.79 inches Hg (1009.0 mb)
Winds: from the WNW (300 degrees) at 7 MPH (6 knots; 3.1 m/s)
Visibility: 6 or more miles (10+ km)
Ceiling: ceiling and visibility are OK
Clouds: unknown
Weather: no significant weather observed at this time

METAR text: UTTT 170930Z 28004KT CAVOK 32/03 Q1009 R08R/CLRD70 NOSIG
Conditions at: UTTT (TASKENT/YUZNI , UZ) observed 0930 UTC 17 June 2019
Temperature: 32.0°C (90°F)
Dewpoint: 3.0°C (37°F) [RH = 16%]
Pressure (altimeter): 29.79 inches Hg (1009.0 mb)
Winds: from the W (280 degrees) at 5 MPH (4 knots; 2.1 m/s)
Visibility: 6 or more miles (10+ km)
Ceiling: ceiling and visibility are OK
Clouds: unknown
Weather: no significant weather observed at this time

METAR text: UTTT 170900Z 27006KT 240V010 CAVOK 31/05 Q1009 R08R/CLRD70 NOSIG
Conditions at: UTTT (TASKENT/YUZNI , UZ) observed 0900 UTC 17 June 2019
Temperature: 31.0°C (88°F)
Dewpoint: 5.0°C (41°F) [RH = 19%]
Pressure (altimeter): 29.79 inches Hg (1009.0 mb)
Winds: from the W (270 degrees) at 7 MPH (6 knots; 3.1 m/s)
Visibility: 6 or more miles (10+ km)
Ceiling: ceiling and visibility are OK
Clouds: unknown
Weather: no significant weather observed at this time

METAR text: UTTT 170830Z 32004KT CAVOK 30/03 Q1010 R08R/CLRD70 NOSIG
Conditions at: UTTT (TASKENT/YUZNI , UZ) observed 0830 UTC 17 June 2019
Temperature: 30.0°C (86°F)
Dewpoint: 3.0°C (37°F) [RH = 18%]
Pressure (altimeter): 29.82 inches Hg (1010.0 mb)
Winds: from the NW (320 degrees) at 5 MPH (4 knots; 2.1 m/s)
Visibility: 6 or more miles (10+ km)
Ceiling: ceiling and visibility are OK
Clouds: unknown
Weather: no significant weather observed at this time

METAR text: UTTT 170800Z 27006KT CAVOK 30/03 Q1010 R08R/CLRD70 NOSIG
Conditions at: UTTT (TASKENT/YUZNI , UZ) observed 0800 UTC 17 June 2019
Temperature: 30.0°C (86°F)
Dewpoint: 3.0°C (37°F) [RH = 18%]
Pressure (altimeter): 29.82 inches Hg (1010.0 mb)
Winds: from the W (270 degrees) at 7 MPH (6 knots; 3.1 m/s)
Visibility: 6 or more miles (10+ km)
Ceiling: ceiling and visibility are OK
Clouds: unknown
Weather: no significant weather observed at this time

METAR text: UTTT 170730Z 23006KT 160V330 CAVOK 29/03 Q1010 R08R/CLRD70 NOSIG
Conditions at: UTTT (TASKENT/YUZNI , UZ) observed 0730 UTC 17 June 2019
Temperature: 29.0°C (84°F)
Dewpoint: 3.0°C (37°F) [RH = 19%]
Pressure (altimeter): 29.82 inches Hg (1010.0 mb)
Winds: from the SW (230 degrees) at 7 MPH (6 knots; 3.1 m/s)
Visibility: 6 or more miles (10+ km)
Ceiling: ceiling and visibility are OK
Clouds: unknown
Weather: no significant weather observed at this time

METAR text: UTTT 170700Z 27006KT CAVOK 30/04 Q1010 R08R/CLRD70 NOSIG
Conditions at: UTTT (TASKENT/YUZNI , UZ) observed 0700 UTC 17 June 2019
Temperature: 30.0°C (86°F)
Dewpoint: 4.0°C (39°F) [RH = 19%]
Pressure (altimeter): 29.82 inches Hg (1010.0 mb)
Winds: from the W (270 degrees) at 7 MPH (6 knots; 3.1 m/s)
Visibility: 6 or more miles (10+ km)
Ceiling: ceiling and visibility are OK
Clouds: unknown
Weather: no significant weather observed at this time

METAR text: UTTT 170630Z 29004KT CAVOK 28/04 Q1010 R08R/CLRD70 NOSIG
Conditions at: UTTT (TASKENT/YUZNI , UZ) observed 0630 UTC 17 June 2019
Temperature: 28.0°C (82°F)
Dewpoint: 4.0°C (39°F) [RH = 22%]
Pressure (altimeter): 29.82 inches Hg (1010.0 mb)
Winds: from the WNW (290 degrees) at 5 MPH (4 knots; 2.1 m/s)
Visibility: 6 or more miles (10+ km)
Ceiling: ceiling and visibility are OK
Clouds: unknown
Weather: no significant weather observed at this time

METAR text: UTTT 170600Z 29006KT 230V360 CAVOK 27/06 Q1011 R08R/CLRD70 NOSIG
Conditions at: UTTT (TASKENT/YUZNI , UZ) observed 0600 UTC 17 June 2019
Temperature: 27.0°C (81°F)
Dewpoint: 6.0°C (43°F) [RH = 26%]
Pressure (altimeter): 29.85 inches Hg (1011.0 mb)
Winds: from the WNW (290 degrees) at 7 MPH (6 knots; 3.1 m/s)
Visibility: 6 or more miles (10+ km)
Ceiling: ceiling and visibility are OK
Clouds: unknown
Weather: no significant weather observed at this time

METAR text: UTTT 170530Z 25006KT 190V310 CAVOK 26/08 Q1011 R08R/CLRD70 NOSIG
Conditions at: UTTT (TASKENT/YUZNI , UZ) observed 0530 UTC 17 June 2019
Temperature: 26.0°C (79°F)
Dewpoint: 8.0°C (46°F) [RH = 32%]
Pressure (altimeter): 29.85 inches Hg (1011.0 mb)
Winds: from the WSW (250 degrees) at 7 MPH (6 knots; 3.1 m/s)
Visibility: 6 or more miles (10+ km)
Ceiling: ceiling and visibility are OK
Clouds: unknown
Weather: no significant weather observed at this time

METAR text: UTTT 170500Z 24006KT 180V290 CAVOK 25/09 Q1011 R08R/CLRD70 NOSIG
Conditions at: UTTT (TASKENT/YUZNI , UZ) observed 0500 UTC 17 June 2019
Temperature: 25.0°C (77°F)
Dewpoint: 9.0°C (48°F) [RH = 36%]
Pressure (altimeter): 29.85 inches Hg (1011.0 mb)
Winds: from the WSW (240 degrees) at 7 MPH (6 knots; 3.1 m/s)
Visibility: 6 or more miles (10+ km)
Ceiling: ceiling and visibility are OK
Clouds: unknown
Weather: no significant weather observed at this time

METAR text: UTTT 170430Z 20006KT CAVOK 23/09 Q1011 R08R/CLRD70 NOSIG
Conditions at: UTTT (TASKENT/YUZNI , UZ) observed 0430 UTC 17 June 2019
Temperature: 23.0°C (73°F)
Dewpoint: 9.0°C (48°F) [RH = 41%]
Pressure (altimeter): 29.85 inches Hg (1011.0 mb)
Winds: from the SSW (200 degrees) at 7 MPH (6 knots; 3.1 m/s)
Visibility: 6 or more miles (10+ km)
Ceiling: ceiling and visibility are OK
Clouds: unknown
Weather: no significant weather observed at this time

METAR text: UTTT 170400Z 20006KT 150V220 CAVOK 22/08 Q1011 R08R/CLRD70 NOSIG
Conditions at: UTTT (TASKENT/YUZNI , UZ) observed 0400 UTC 17 June 2019
Temperature: 22.0°C (72°F)
Dewpoint: 8.0°C (46°F) [RH = 41%]
Pressure (altimeter): 29.85 inches Hg (1011.0 mb)
Winds: from the SSW (200 degrees) at 7 MPH (6 knots; 3.1 m/s)
Visibility: 6 or more miles (10+ km)
Ceiling: ceiling and visibility are OK
Clouds: unknown
Weather: no significant weather observed at this time

METAR text: UTTT 170330Z 20006KT 140V230 CAVOK 22/08 Q1011 R08R/CLRD70 NOSIG
Conditions at: UTTT (TASKENT/YUZNI , UZ) observed 0330 UTC 17 June 2019
Temperature: 22.0°C (72°F)
Dewpoint: 8.0°C (46°F) [RH = 41%]
Pressure (altimeter): 29.85 inches Hg (1011.0 mb)
Winds: from the SSW (200 degrees) at 7 MPH (6 knots; 3.1 m/s)
Visibility: 6 or more miles (10+ km)
Ceiling: ceiling and visibility are OK
Clouds: unknown
Weather: no significant weather observed at this time

METAR text: UTTT 170300Z 18008KT CAVOK 21/07 Q1011 R08R/CLRD70 NOSIG
Conditions at: UTTT (TASKENT/YUZNI , UZ) observed 0300 UTC 17 June 2019
Temperature: 21.0°C (70°F)
Dewpoint: 7.0°C (45°F) [RH = 40%]
Pressure (altimeter): 29.85 inches Hg (1011.0 mb)
Winds: from the S (180 degrees) at 9 MPH (8 knots; 4.1 m/s)
Visibility: 6 or more miles (10+ km)
Ceiling: ceiling and visibility are OK
Clouds: unknown
Weather: no significant weather observed at this time

METAR text: UTTT 170230Z 15008KT CAVOK 20/08 Q1011 R08R/CLRD70 NOSIG
Conditions at: UTTT (TASKENT/YUZNI , UZ) observed 0230 UTC 17 June 2019
Temperature: 20.0°C (68°F)
Dewpoint: 8.0°C (46°F) [RH = 46%]
Pressure (altimeter): 29.85 inches Hg (1011.0 mb)
Winds: from the SSE (150 degrees) at 9 MPH (8 knots; 4.1 m/s)
Visibility: 6 or more miles (10+ km)
Ceiling: ceiling and visibility are OK
Clouds: unknown
Weather: no significant weather observed at this time

METAR text: UTTT 170200Z 16004KT CAVOK 20/08 Q1011 R08R/CLRD70 NOSIG
Conditions at: UTTT (TASKENT/YUZNI , UZ) observed 0200 UTC 17 June 2019
Temperature: 20.0°C (68°F)
Dewpoint: 8.0°C (46°F) [RH = 46%]
Pressure (altimeter): 29.85 inches Hg (1011.0 mb)
Winds: from the SSE (160 degrees) at 5 MPH (4 knots; 2.1 m/s)
Visibility: 6 or more miles (10+ km)
Ceiling: ceiling and visibility are OK
Clouds: unknown
Weather: no significant weather observed at this time

METAR text: UTTT 170130Z 09004KT CAVOK 20/08 Q1011 R08R/CLRD70 NOSIG
Conditions at: UTTT (TASKENT/YUZNI , UZ) observed 0130 UTC 17 June 2019
Temperature: 20.0°C (68°F)
Dewpoint: 8.0°C (46°F) [RH = 46%]
Pressure (altimeter): 29.85 inches Hg (1011.0 mb)
Winds: from the E (90 degrees) at 5 MPH (4 knots; 2.1 m/s)
Visibility: 6 or more miles (10+ km)
Ceiling: ceiling and visibility are OK
Clouds: unknown
Weather: no significant weather observed at this time

METAR text: UTTT 170100Z 10004KT CAVOK 19/08 Q1011 R08R/CLRD70 NOSIG
Conditions at: UTTT (TASKENT/YUZNI , UZ) observed 0100 UTC 17 June 2019
Temperature: 19.0°C (66°F)
Dewpoint: 8.0°C (46°F) [RH = 49%]
Pressure (altimeter): 29.85 inches Hg (1011.0 mb)
Winds: from the E (100 degrees) at 5 MPH (4 knots; 2.1 m/s)
Visibility: 6 or more miles (10+ km)
Ceiling: ceiling and visibility are OK
Clouds: unknown
Weather: no significant weather observed at this time

METAR text: UTTT 170030Z 08004KT 040V100 CAVOK 19/04 Q1010 R08R/CLRD70 NOSIG
Conditions at: UTTT (TASKENT/YUZNI , UZ) observed 0030 UTC 17 June 2019
Temperature: 19.0°C (66°F)
Dewpoint: 4.0°C (39°F) [RH = 37%]
Pressure (altimeter): 29.82 inches Hg (1010.0 mb)
Winds: from the E (80 degrees) at 5 MPH (4 knots; 2.1 m/s)
Visibility: 6 or more miles (10+ km)
Ceiling: ceiling and visibility are OK
Clouds: unknown
Weather: no significant weather observed at this time

METAR text: UTTT 170000Z 03004KT 350V050 CAVOK 20/04 Q1010 R08R/CLRD70 NOSIG
Conditions at: UTTT (TASKENT/YUZNI , UZ) observed 0000 UTC 17 June 2019
Temperature: 20.0°C (68°F)
Dewpoint: 4.0°C (39°F) [RH = 35%]
Pressure (altimeter): 29.82 inches Hg (1010.0 mb)
Winds: from the NNE (30 degrees) at 5 MPH (4 knots; 2.1 m/s)
Visibility: 6 or more miles (10+ km)
Ceiling: ceiling and visibility are OK
Clouds: unknown
Weather: no significant weather observed at this time

METAR text: UTTT 162330Z 07004KT 020V100 CAVOK 19/04 Q1010 R08R/CLRD70 NOSIG
Conditions at: UTTT (TASKENT/YUZNI , UZ) observed 2330 UTC 16 June 2019
Temperature: 19.0°C (66°F)
Dewpoint: 4.0°C (39°F) [RH = 37%]
Pressure (altimeter): 29.82 inches Hg (1010.0 mb)
Winds: from the ENE (70 degrees) at 5 MPH (4 knots; 2.1 m/s)
Visibility: 6 or more miles (10+ km)
Ceiling: ceiling and visibility are OK
Clouds: unknown
Weather: no significant weather observed at this time

METAR text: UTTT 162300Z 01006KT CAVOK 20/02 Q1010 R08R/CLRD70 NOSIG
Conditions at: UTTT (TASKENT/YUZNI , UZ) observed 2300 UTC 16 June 2019
Temperature: 20.0°C (68°F)
Dewpoint: 2.0°C (36°F) [RH = 30%]
Pressure (altimeter): 29.82 inches Hg (1010.0 mb)
Winds: from the N (10 degrees) at 7 MPH (6 knots; 3.1 m/s)
Visibility: 6 or more miles (10+ km)
Ceiling: ceiling and visibility are OK
Clouds: unknown
Weather: no significant weather observed at this time

METAR text: UTTT 162230Z 36008KT CAVOK 20/02 Q1010 R08R/CLRD70 NOSIG
Conditions at: UTTT (TASKENT/YUZNI , UZ) observed 2230 UTC 16 June 2019
Temperature: 20.0°C (68°F)
Dewpoint: 2.0°C (36°F) [RH = 30%]
Pressure (altimeter): 29.82 inches Hg (1010.0 mb)
Winds: from the N (360 degrees) at 9 MPH (8 knots; 4.1 m/s)
Visibility: 6 or more miles (10+ km)
Ceiling: ceiling and visibility are OK
Clouds: unknown
Weather: no significant weather observed at this time

METAR text: UTTT 162200Z 35008KT CAVOK 20/02 Q1010 R08R/CLRD70 NOSIG
Conditions at: UTTT (TASKENT/YUZNI , UZ) observed 2200 UTC 16 June 2019
Temperature: 20.0°C (68°F)
Dewpoint: 2.0°C (36°F) [RH = 30%]
Pressure (altimeter): 29.82 inches Hg (1010.0 mb)
Winds: from the N (350 degrees) at 9 MPH (8 knots; 4.1 m/s)
Visibility: 6 or more miles (10+ km)
Ceiling: ceiling and visibility are OK
Clouds: unknown
Weather: no significant weather observed at this time

METAR text: UTTT 162130Z 36010KT CAVOK 21/02 Q1010 R08R/CLRD70 NOSIG
Conditions at: UTTT (TASKENT/YUZNI , UZ) observed 2130 UTC 16 June 2019
Temperature: 21.0°C (70°F)
Dewpoint: 2.0°C (36°F) [RH = 28%]
Pressure (altimeter): 29.82 inches Hg (1010.0 mb)
Winds: from the N (360 degrees) at 12 MPH (10 knots; 5.1 m/s)
Visibility: 6 or more miles (10+ km)
Ceiling: ceiling and visibility are OK
Clouds: unknown
Weather: no significant weather observed at this time

METAR text: UTTT 162100Z 36010KT CAVOK 21/03 Q1010 R08R/CLRD70 NOSIG
Conditions at: UTTT (TASKENT/YUZNI , UZ) observed 2100 UTC 16 June 2019
Temperature: 21.0°C (70°F)
Dewpoint: 3.0°C (37°F) [RH = 30%]
Pressure (altimeter): 29.82 inches Hg (1010.0 mb)
Winds: from the N (360 degrees) at 12 MPH (10 knots; 5.1 m/s)
Visibility: 6 or more miles (10+ km)
Ceiling: ceiling and visibility are OK
Clouds: unknown
Weather: no significant weather observed at this time

METAR text: UTTT 162030Z 36012KT CAVOK 21/04 Q1010 R08R/CLRD70 NOSIG
Conditions at: UTTT (TASKENT/YUZNI , UZ) observed 2030 UTC 16 June 2019
Temperature: 21.0°C (70°F)
Dewpoint: 4.0°C (39°F) [RH = 33%]
Pressure (altimeter): 29.82 inches Hg (1010.0 mb)
Winds: from the N (360 degrees) at 14 MPH (12 knots; 6.2 m/s)
Visibility: 6 or more miles (10+ km)
Ceiling: ceiling and visibility are OK
Clouds: unknown
Weather: no significant weather observed at this time

METAR text: UTTT 162000Z 36012KT CAVOK 22/04 Q1010 R08R/CLRD70 NOSIG
Conditions at: UTTT (TASKENT/YUZNI , UZ) observed 2000 UTC 16 June 2019
Temperature: 22.0°C (72°F)
Dewpoint: 4.0°C (39°F) [RH = 31%]
Pressure (altimeter): 29.82 inches Hg (1010.0 mb)
Winds: from the N (360 degrees) at 14 MPH (12 knots; 6.2 m/s)
Visibility: 6 or more miles (10+ km)
Ceiling: ceiling and visibility are OK
Clouds: unknown
Weather: no significant weather observed at this time

METAR text: UTTT 161930Z 36012KT CAVOK 23/04 Q1010 R08R/CLRD70 NOSIG
Conditions at: UTTT (TASKENT/YUZNI , UZ) observed 1930 UTC 16 June 2019
Temperature: 23.0°C (73°F)
Dewpoint: 4.0°C (39°F) [RH = 29%]
Pressure (altimeter): 29.82 inches Hg (1010.0 mb)
Winds: from the N (360 degrees) at 14 MPH (12 knots; 6.2 m/s)
Visibility: 6 or more miles (10+ km)
Ceiling: ceiling and visibility are OK
Clouds: unknown
Weather: no significant weather observed at this time

METAR text: UTTT 161900Z 01012KT CAVOK 24/04 Q1010 R08R/CLRD70 NOSIG
Conditions at: UTTT (TASKENT/YUZNI , UZ) observed 1900 UTC 16 June 2019
Temperature: 24.0°C (75°F)
Dewpoint: 4.0°C (39°F) [RH = 27%]
Pressure (altimeter): 29.82 inches Hg (1010.0 mb)
Winds: from the N (10 degrees) at 14 MPH (12 knots; 6.2 m/s)
Visibility: 6 or more miles (10+ km)
Ceiling: ceiling and visibility are OK
Clouds: unknown
Weather: no significant weather observed at this time

METAR text: UTTT 161830Z 36010KT CAVOK 24/05 Q1010 R08R/CLRD70 NOSIG
Conditions at: UTTT (TASKENT/YUZNI , UZ) observed 1830 UTC 16 June 2019
Temperature: 24.0°C (75°F)
Dewpoint: 5.0°C (41°F) [RH = 29%]
Pressure (altimeter): 29.82 inches Hg (1010.0 mb)
Winds: from the N (360 degrees) at 12 MPH (10 knots; 5.1 m/s)
Visibility: 6 or more miles (10+ km)
Ceiling: ceiling and visibility are OK
Clouds: unknown
Weather: no significant weather observed at this time

METAR text: UTTT 161800Z 36010KT 340V040 CAVOK 25/04 Q1010 R08R/CLRD70 NOSIG
Conditions at: UTTT (TASKENT/YUZNI , UZ) observed 1800 UTC 16 June 2019
Temperature: 25.0°C (77°F)
Dewpoint: 4.0°C (39°F) [RH = 26%]
Pressure (altimeter): 29.82 inches Hg (1010.0 mb)
Winds: from the N (360 degrees) at 12 MPH (10 knots; 5.1 m/s)
Visibility: 6 or more miles (10+ km)
Ceiling: ceiling and visibility are OK
Clouds: unknown
Weather: no significant weather observed at this time

METAR text: UTTT 161730Z 01010KT CAVOK 26/03 Q1010 R08R/CLRD70 NOSIG
Conditions at: UTTT (TASKENT/YUZNI , UZ) observed 1730 UTC 16 June 2019
Temperature: 26.0°C (79°F)
Dewpoint: 3.0°C (37°F) [RH = 23%]
Pressure (altimeter): 29.82 inches Hg (1010.0 mb)
Winds: from the N (10 degrees) at 12 MPH (10 knots; 5.1 m/s)
Visibility: 6 or more miles (10+ km)
Ceiling: ceiling and visibility are OK
Clouds: unknown
Weather: no significant weather observed at this time

METAR text: UTTT 161700Z 36010KT CAVOK 27/03 Q1010 R08R/CLRD70 NOSIG
Conditions at: UTTT (TASKENT/YUZNI , UZ) observed 1700 UTC 16 June 2019
Temperature: 27.0°C (81°F)
Dewpoint: 3.0°C (37°F) [RH = 21%]
Pressure (altimeter): 29.82 inches Hg (1010.0 mb)
Winds: from the N (360 degrees) at 12 MPH (10 knots; 5.1 m/s)
Visibility: 6 or more miles (10+ km)
Ceiling: ceiling and visibility are OK
Clouds: unknown
Weather: no significant weather observed at this time

METAR text: UTTT 161630Z 01006KT CAVOK 28/04 Q1010 R08R/CLRD70 NOSIG
Conditions at: UTTT (TASKENT/YUZNI , UZ) observed 1630 UTC 16 June 2019
Temperature: 28.0°C (82°F)
Dewpoint: 4.0°C (39°F) [RH = 22%]
Pressure (altimeter): 29.82 inches Hg (1010.0 mb)
Winds: from the N (10 degrees) at 7 MPH (6 knots; 3.1 m/s)
Visibility: 6 or more miles (10+ km)
Ceiling: ceiling and visibility are OK
Clouds: unknown
Weather: no significant weather observed at this time

METAR text: UTTT 161600Z 35008KT CAVOK 29/03 Q1010 R08R/CLRD70 NOSIG
Conditions at: UTTT (TASKENT/YUZNI , UZ) observed 1600 UTC 16 June 2019
Temperature: 29.0°C (84°F)
Dewpoint: 3.0°C (37°F) [RH = 19%]
Pressure (altimeter): 29.82 inches Hg (1010.0 mb)
Winds: from the N (350 degrees) at 9 MPH (8 knots; 4.1 m/s)
Visibility: 6 or more miles (10+ km)
Ceiling: ceiling and visibility are OK
Clouds: unknown
Weather: no significant weather observed at this time

METAR text: UTTT 161530Z 29004KT 260V320 CAVOK 28/04 Q1009 R08R/CLRD70 NOSIG
Conditions at: UTTT (TASKENT/YUZNI , UZ) observed 1530 UTC 16 June 2019
Temperature: 28.0°C (82°F)
Dewpoint: 4.0°C (39°F) [RH = 22%]
Pressure (altimeter): 29.79 inches Hg (1009.0 mb)
Winds: from the WNW (290 degrees) at 5 MPH (4 knots; 2.1 m/s)
Visibility: 6 or more miles (10+ km)
Ceiling: ceiling and visibility are OK
Clouds: unknown
Weather: no significant weather observed at this time

Forecast for: UTTT (TASKENT/YUZNI , UZ)
Text: TAF UTTT 172300Z 1800/1824 08010KT CAVOK
Forecast period: 0000 UTC 18 June 2019 to 0000 UTC 19 June 2019
Forecast type: FROM: standard forecast or significant change
Winds: from the E (80 degrees) at 12 MPH (10 knots; 5.1 m/s)
Visibility: 6 or more miles 10+ km)
Ceiling: unknown
Clouds: missing
Weather: NSW  (no significant weather)
Text: TEMPO 1805/1815 34015KT FEW060CB
Forecast period: 0500 to 1500 UTC 18 June 2019
Forecast type: TEMPORARY: The following changes expected for less than half the time period
Winds: from the NNW (340 degrees) at 17 MPH (15 knots; 7.7 m/s)
Visibility: missing
Ceiling: at least 12,000 feet AGL
Clouds: few clouds at 6000 feet AGL
Weather: no significant weather forecast for this period